Ozawkie, Kansas
Current Conditions -  °F | °C
As of 5:53 AM on Thursday 23 Oct 2014 (Local Time) from KTOP Reporting Station
Light Rain Light Rain  
Wind Chill: 62°   Ceiling: 9500
Heat Index: 62°   Visibility: 9mi
Dew Point: 61°   Wind: 9mph
Humidity: 96%   Direction: 140°SE
Pressure: 30.08"   Gusts: NA
Location:  39.23°N, 95.47°W
Report Text: KTOP 231053Z AUTO 14008KT 9SM -RA FEW042 BKN095 BKN110 17/16 A3008 RMK AO2 LTG DSNT SW SLP182 P0022 T01670161
Loading
Personal Weather Stations






























Interactive Weather Map
Tropical Storm Tracking
New forecast layout! Learn more

10-Day Weather Forecast

Advertisements
Track Severe Weather on mobile